TimeEDT,TemperatureF,Dew PointF,Humidity,Sea Level PressureIn,VisibilityMPH,Wind Direction,Wind SpeedMPH,Gust SpeedMPH,PrecipitationIn,Events,Conditions,WindDirDegrees,DateUTC
12:51 AM,55.9,39.0,53,29.86,10.0,West,10.4,-,N/A,,Partly Cloudy,270,2012-10-21 04:51:00
1:51 AM,55.0,37.9,53,29.87,10.0,West,10.4,-,N/A,,Mostly Cloudy,280,2012-10-21 05:51:00
2:51 AM,54.0,37.9,55,29.89,10.0,WNW,13.8,-,N/A,,Partly Cloudy,290,2012-10-21 06:51:00
3:51 AM,53.1,39.0,59,29.89,10.0,West,10.4,-,N/A,,Clear,280,2012-10-21 07:51:00
4:51 AM,52.0,39.0,61,29.90,10.0,West,9.2,-,N/A,,Clear,280,2012-10-21 08:51:00
5:51 AM,52.0,39.9,63,29.92,10.0,West,8.1,18.4,N/A,,Clear,280,2012-10-21 09:51:00
6:51 AM,51.1,41.0,68,29.95,10.0,West,12.7,-,N/A,,Partly Cloudy,270,2012-10-21 10:51:00
7:51 AM,52.0,41.0,66,29.97,10.0,West,10.4,-,N/A,,Partly Cloudy,280,2012-10-21 11:51:00
8:51 AM,54.0,42.1,64,29.99,10.0,West,9.2,-,N/A,,Scattered Clouds,270,2012-10-21 12:51:00
9:51 AM,55.9,42.1,60,30.00,10.0,WNW,11.5,-,N/A,,Partly Cloudy,290,2012-10-21 13:51:00
10:51 AM,57.9,42.1,56,30.00,10.0,WNW,6.9,-,N/A,,Partly Cloudy,300,2012-10-21 14:51:00
11:51 AM,61.0,41.0,48,29.99,10.0,WNW,6.9,17.3,N/A,,Partly Cloudy,300,2012-10-21 15:51:00
12:51 PM,63.0,39.0,41,29.97,10.0,NW,13.8,23.0,N/A,,Partly Cloudy,310,2012-10-21 16:51:00
1:51 PM,64.9,39.0,39,29.95,10.0,WNW,13.8,23.0,N/A,,Partly Cloudy,290,2012-10-21 17:51:00
2:51 PM,66.9,37.0,33,29.95,10.0,WNW,16.1,25.3,N/A,,Scattered Clouds,300,2012-10-21 18:51:00
3:51 PM,66.9,36.0,32,29.95,10.0,WNW,18.4,24.2,N/A,,Scattered Clouds,290,2012-10-21 19:51:00
4:51 PM,66.0,36.0,33,29.95,10.0,NW,13.8,-,N/A,,Scattered Clouds,320,2012-10-21 20:51:00
5:51 PM,64.0,34.0,33,29.96,10.0,NW,13.8,19.6,N/A,,Partly Cloudy,310,2012-10-21 21:51:00
6:51 PM,62.1,34.0,35,29.98,10.0,NW,13.8,-,N/A,,Partly Cloudy,310,2012-10-21 22:51:00
7:51 PM,62.1,35.1,37,29.99,10.0,West,9.2,-,N/A,,Clear,280,2012-10-21 23:51:00
8:51 PM,59.0,41.0,51,30.01,10.0,West,9.2,-,N/A,,Clear,260,2012-10-22 00:51:00
9:51 PM,59.0,41.0,51,30.03,10.0,West,11.5,-,N/A,,Clear,270,2012-10-22 01:51:00
10:51 PM,59.0,39.0,48,30.03,10.0,WNW,13.8,-,N/A,,Clear,290,2012-10-22 02:51:00
11:51 PM,57.0,39.0,51,30.04,10.0,West,10.4,-,N/A,,Clear,280,2012-10-22 03:51:00